sensor_id;sensor_type;location;lat;lon;timestamp;temperature;humidity
77247;SHT35;66279;42.820;23.374;2023-04-24T00:00:40;7.81;76.17
77247;SHT35;66279;42.820;23.374;2023-04-24T00:03:06;7.83;76.57
77247;SHT35;66279;42.820;23.374;2023-04-24T00:05:32;7.79;74.76
77247;SHT35;66279;42.820;23.374;2023-04-24T00:07:58;7.75;74.99
77247;SHT35;66279;42.820;23.374;2023-04-24T00:10:23;7.64;74.92
77247;SHT35;66279;42.820;23.374;2023-04-24T00:12:49;7.50;74.77
77247;SHT35;66279;42.820;23.374;2023-04-24T00:15:14;7.37;75.19
77247;SHT35;66279;42.820;23.374;2023-04-24T00:17:40;7.24;75.33
77247;SHT35;66279;42.820;23.374;2023-04-24T00:20:06;7.20;75.68
77247;SHT35;66279;42.820;23.374;2023-04-24T00:22:32;7.08;75.79
77247;SHT35;66279;42.820;23.374;2023-04-24T00:24:57;7.06;75.73
77247;SHT35;66279;42.820;23.374;2023-04-24T00:27:23;7.01;75.92
77247;SHT35;66279;42.820;23.374;2023-04-24T00:29:49;7.03;76.40
77247;SHT35;66279;42.820;23.374;2023-04-24T00:32:14;7.03;76.08
77247;SHT35;66279;42.820;23.374;2023-04-24T00:34:40;6.90;76.11
77247;SHT35;66279;42.820;23.374;2023-04-24T00:37:06;6.79;76.40
77247;SHT35;66279;42.820;23.374;2023-04-24T00:39:32;6.82;76.28
77247;SHT35;66279;42.820;23.374;2023-04-24T00:41:58;6.77;76.36
77247;SHT35;66279;42.820;23.374;2023-04-24T00:44:24;6.79;77.08
77247;SHT35;66279;42.820;23.374;2023-04-24T00:46:50;6.77;78.39
77247;SHT35;66279;42.820;23.374;2023-04-24T00:49:22;6.76;78.72
77247;SHT35;66279;42.820;23.374;2023-04-24T00:51:48;6.71;78.28
77247;SHT35;66279;42.820;23.374;2023-04-24T00:54:15;6.61;77.05
77247;SHT35;66279;42.820;23.374;2023-04-24T00:56:41;6.45;77.64
77247;SHT35;66279;42.820;23.374;2023-04-24T00:59:08;6.41;77.97
77247;SHT35;66279;42.820;23.374;2023-04-24T01:01:33;6.38;77.13
77247;SHT35;66279;42.820;23.374;2023-04-24T01:03:59;6.38;77.71
77247;SHT35;66279;42.820;23.374;2023-04-24T01:06:27;6.38;78.23
77247;SHT35;66279;42.820;23.374;2023-04-24T01:08:54;6.34;78.17
77247;SHT35;66279;42.820;23.374;2023-04-24T01:11:21;6.28;78.80
77247;SHT35;66279;42.820;23.374;2023-04-24T01:13:48;6.29;77.86
77247;SHT35;66279;42.820;23.374;2023-04-24T01:16:16;6.20;78.42
77247;SHT35;66279;42.820;23.374;2023-04-24T01:18:43;6.08;78.67
77247;SHT35;66279;42.820;23.374;2023-04-24T01:21:09;6.06;78.59
77247;SHT35;66279;42.820;23.374;2023-04-24T01:23:36;6.06;78.72
77247;SHT35;66279;42.820;23.374;2023-04-24T01:26:02;5.93;79.58
77247;SHT35;66279;42.820;23.374;2023-04-24T01:28:27;5.90;79.22
77247;SHT35;66279;42.820;23.374;2023-04-24T01:30:53;5.83;79.84
77247;SHT35;66279;42.820;23.374;2023-04-24T01:33:20;5.79;79.94
77247;SHT35;66279;42.820;23.374;2023-04-24T01:35:47;5.74;80.00
77247;SHT35;66279;42.820;23.374;2023-04-24T01:38:13;5.66;79.73
77247;SHT35;66279;42.820;23.374;2023-04-24T01:40:39;5.55;80.51
77247;SHT35;66279;42.820;23.374;2023-04-24T01:43:04;5.49;80.17
77247;SHT35;66279;42.820;23.374;2023-04-24T01:45:30;5.49;80.64
77247;SHT35;66279;42.820;23.374;2023-04-24T01:47:56;5.49;80.05
77247;SHT35;66279;42.820;23.374;2023-04-24T01:50:22;5.48;80.36
77247;SHT35;66279;42.820;23.374;2023-04-24T01:52:47;5.49;80.52
77247;SHT35;66279;42.820;23.374;2023-04-24T01:55:13;5.55;81.05
77247;SHT35;66279;42.820;23.374;2023-04-24T01:57:39;5.55;80.24
77247;SHT35;66279;42.820;23.374;2023-04-24T02:00:06;5.55;79.59
77247;SHT35;66279;42.820;23.374;2023-04-24T02:02:32;5.48;80.18
77247;SHT35;66279;42.820;23.374;2023-04-24T02:04:58;5.43;79.98
77247;SHT35;66279;42.820;23.374;2023-04-24T02:07:23;5.38;80.33
77247;SHT35;66279;42.820;23.374;2023-04-24T02:09:49;5.34;80.00
77247;SHT35;66279;42.820;23.374;2023-04-24T02:12:16;5.32;80.59
77247;SHT35;66279;42.820;23.374;2023-04-24T02:14:43;5.27;79.98
77247;SHT35;66279;42.820;23.374;2023-04-24T02:17:09;5.21;80.09
77247;SHT35;66279;42.820;23.374;2023-04-24T02:19:35;5.17;80.57
77247;SHT35;66279;42.820;23.374;2023-04-24T02:22:00;5.17;81.09
77247;SHT35;66279;42.820;23.374;2023-04-24T02:24:26;5.17;80.99
77247;SHT35;66279;42.820;23.374;2023-04-24T02:26:51;5.08;81.37
77247;SHT35;66279;42.820;23.374;2023-04-24T02:29:17;5.09;80.82
77247;SHT35;66279;42.820;23.374;2023-04-24T02:31:43;5.09;80.62
77247;SHT35;66279;42.820;23.374;2023-04-24T02:34:08;4.95;81.09
77247;SHT35;66279;42.820;23.374;2023-04-24T02:36:34;4.92;81.27
77247;SHT35;66279;42.820;23.374;2023-04-24T02:39:00;4.91;81.34
77247;SHT35;66279;42.820;23.374;2023-04-24T02:41:26;4.85;81.41
77247;SHT35;66279;42.820;23.374;2023-04-24T02:43:57;4.87;81.33
77247;SHT35;66279;42.820;23.374;2023-04-24T02:46:23;4.91;81.65
77247;SHT35;66279;42.820;23.374;2023-04-24T02:48:48;4.84;81.46
77247;SHT35;66279;42.820;23.374;2023-04-24T02:51:14;4.77;82.24
77247;SHT35;66279;42.820;23.374;2023-04-24T02:53:39;4.74;81.66
77247;SHT35;66279;42.820;23.374;2023-04-24T02:56:05;4.70;82.56
77247;SHT35;66279;42.820;23.374;2023-04-24T02:58:30;4.68;82.25
77247;SHT35;66279;42.820;23.374;2023-04-24T03:00:56;4.64;82.78
77247;SHT35;66279;42.820;23.374;2023-04-24T03:03:22;4.59;82.96
77247;SHT35;66279;42.820;23.374;2023-04-24T03:05:48;4.59;83.12
77247;SHT35;66279;42.820;23.374;2023-04-24T03:08:13;4.57;83.03
77247;SHT35;66279;42.820;23.374;2023-04-24T03:10:39;4.61;83.38
77247;SHT35;66279;42.820;23.374;2023-04-24T03:13:05;4.61;83.29
77247;SHT35;66279;42.820;23.374;2023-04-24T03:15:31;4.53;82.89
77247;SHT35;66279;42.820;23.374;2023-04-24T03:17:56;4.52;83.29
77247;SHT35;66279;42.820;23.374;2023-04-24T03:20:22;4.56;83.67
77247;SHT35;66279;42.820;23.374;2023-04-24T03:22:47;4.57;83.91
77247;SHT35;66279;42.820;23.374;2023-04-24T03:25:13;4.63;84.34
77247;SHT35;66279;42.820;23.374;2023-04-24T03:27:38;4.66;82.96
77247;SHT35;66279;42.820;23.374;2023-04-24T03:30:08;4.70;83.91
77247;SHT35;66279;42.820;23.374;2023-04-24T03:32:34;4.74;82.93
77247;SHT35;66279;42.820;23.374;2023-04-24T03:34:59;4.81;83.54
77247;SHT35;66279;42.820;23.374;2023-04-24T03:37:25;4.83;83.42
77247;SHT35;66279;42.820;23.374;2023-04-24T03:39:52;4.85;83.16
77247;SHT35;66279;42.820;23.374;2023-04-24T03:42:17;4.91;83.38
77247;SHT35;66279;42.820;23.374;2023-04-24T03:44:43;4.95;82.85
77247;SHT35;66279;42.820;23.374;2023-04-24T03:47:09;4.94;82.82
77247;SHT35;66279;42.820;23.374;2023-04-24T03:49:35;4.92;82.72
77247;SHT35;66279;42.820;23.374;2023-04-24T03:52:00;4.95;83.88
77247;SHT35;66279;42.820;23.374;2023-04-24T03:54:26;5.01;83.29
77247;SHT35;66279;42.820;23.374;2023-04-24T03:56:52;5.05;83.19
77247;SHT35;66279;42.820;23.374;2023-04-24T03:59:17;5.09;83.03
77247;SHT35;66279;42.820;23.374;2023-04-24T04:01:43;5.17;82.87
77247;SHT35;66279;42.820;23.374;2023-04-24T04:04:09;5.22;82.88
77247;SHT35;66279;42.820;23.374;2023-04-24T04:06:34;5.27;82.99
77247;SHT35;66279;42.820;23.374;2023-04-24T04:09:01;5.36;83.79
77247;SHT35;66279;42.820;23.374;2023-04-24T04:11:27;5.49;83.42
77247;SHT35;66279;42.820;23.374;2023-04-24T04:13:52;5.56;84.16
77247;SHT35;66279;42.820;23.374;2023-04-24T04:16:18;5.69;83.42
77247;SHT35;66279;42.820;23.374;2023-04-24T04:18:44;5.86;84.13
77247;SHT35;66279;42.820;23.374;2023-04-24T04:21:10;6.14;82.55
77247;SHT35;66279;42.820;23.374;2023-04-24T04:23:35;6.29;82.01
77247;SHT35;66279;42.820;23.374;2023-04-24T04:26:02;6.45;83.01
77247;SHT35;66279;42.820;23.374;2023-04-24T04:28:28;6.59;82.76
77247;SHT35;66279;42.820;23.374;2023-04-24T04:30:56;6.77;81.64
77247;SHT35;66279;42.820;23.374;2023-04-24T04:33:23;6.99;81.35
77247;SHT35;66279;42.820;23.374;2023-04-24T04:35:49;7.11;80.36
77247;SHT35;66279;42.820;23.374;2023-04-24T04:38:20;7.30;78.63
77247;SHT35;66279;42.820;23.374;2023-04-24T04:40:46;7.47;79.10
77247;SHT35;66279;42.820;23.374;2023-04-24T04:43:12;7.66;79.42
77247;SHT35;66279;42.820;23.374;2023-04-24T04:45:38;7.78;78.07
77247;SHT35;66279;42.820;23.374;2023-04-24T04:48:05;7.88;76.99
77247;SHT35;66279;42.820;23.374;2023-04-24T04:50:33;8.05;77.58
77247;SHT35;66279;42.820;23.374;2023-04-24T04:52:59;8.19;77.05
77247;SHT35;66279;42.820;23.374;2023-04-24T04:55:24;8.30;76.91
77247;SHT35;66279;42.820;23.374;2023-04-24T04:57:51;8.46;75.26
77247;SHT35;66279;42.820;23.374;2023-04-24T05:00:17;8.61;76.88
77247;SHT35;66279;42.820;23.374;2023-04-24T05:02:42;8.69;76.68
77247;SHT35;66279;42.820;23.374;2023-04-24T05:05:08;8.78;76.61
77247;SHT35;66279;42.820;23.374;2023-04-24T05:07:34;8.91;76.94
77247;SHT35;66279;42.820;23.374;2023-04-24T05:10:00;9.01;74.52
77247;SHT35;66279;42.820;23.374;2023-04-24T05:12:25;9.18;74.07
77247;SHT35;66279;42.820;23.374;2023-04-24T05:14:51;9.35;74.37
77247;SHT35;66279;42.820;23.374;2023-04-24T05:17:16;9.54;74.33
77247;SHT35;66279;42.820;23.374;2023-04-24T05:19:42;9.71;73.81
77247;SHT35;66279;42.820;23.374;2023-04-24T05:22:08;9.85;72.34
77247;SHT35;66279;42.820;23.374;2023-04-24T05:24:35;10.01;71.66
77247;SHT35;66279;42.820;23.374;2023-04-24T05:27:01;10.16;71.46
77247;SHT35;66279;42.820;23.374;2023-04-24T05:29:27;10.36;71.71
77247;SHT35;66279;42.820;23.374;2023-04-24T05:31:53;10.55;72.01
77247;SHT35;66279;42.820;23.374;2023-04-24T05:34:19;10.66;71.55
77247;SHT35;66279;42.820;23.374;2023-04-24T05:36:44;10.80;70.17
77247;SHT35;66279;42.820;23.374;2023-04-24T05:39:10;10.99;71.40
77247;SHT35;66279;42.820;23.374;2023-04-24T05:41:35;11.06;70.46
77247;SHT35;66279;42.820;23.374;2023-04-24T05:44:01;11.13;70.58
77247;SHT35;66279;42.820;23.374;2023-04-24T05:46:26;11.20;70.20
77247;SHT35;66279;42.820;23.374;2023-04-24T05:48:52;11.28;70.32
77247;SHT35;66279;42.820;23.374;2023-04-24T05:51:17;11.39;69.37
77247;SHT35;66279;42.820;23.374;2023-04-24T05:53:43;11.50;68.73
77247;SHT35;66279;42.820;23.374;2023-04-24T05:56:08;11.55;66.90
77247;SHT35;66279;42.820;23.374;2023-04-24T05:58:34;11.69;66.96
77247;SHT35;66279;42.820;23.374;2023-04-24T06:01:00;11.85;67.07
77247;SHT35;66279;42.820;23.374;2023-04-24T06:03:27;12.10;66.53
77247;SHT35;66279;42.820;23.374;2023-04-24T06:05:53;12.38;65.03
77247;SHT35;66279;42.820;23.374;2023-04-24T06:08:18;12.54;63.99
77247;SHT35;66279;42.820;23.374;2023-04-24T06:10:44;12.64;63.36
77247;SHT35;66279;42.820;23.374;2023-04-24T06:13:10;12.81;63.83
77247;SHT35;66279;42.820;23.374;2023-04-24T06:15:36;13.01;62.42
77247;SHT35;66279;42.820;23.374;2023-04-24T06:18:02;13.24;62.05
77247;SHT35;66279;42.820;23.374;2023-04-24T06:20:28;13.53;62.75
77247;SHT35;66279;42.820;23.374;2023-04-24T06:22:53;13.74;58.79
77247;SHT35;66279;42.820;23.374;2023-04-24T06:25:19;13.68;56.71
77247;SHT35;66279;42.820;23.374;2023-04-24T06:27:45;13.78;58.55
77247;SHT35;66279;42.820;23.374;2023-04-24T06:30:10;13.98;57.78
77247;SHT35;66279;42.820;23.374;2023-04-24T06:32:36;14.25;58.80
77247;SHT35;66279;42.820;23.374;2023-04-24T06:35:02;14.55;58.06
77247;SHT35;66279;42.820;23.374;2023-04-24T06:37:27;14.65;58.03
77247;SHT35;66279;42.820;23.374;2023-04-24T06:39:53;14.77;57.29
77247;SHT35;66279;42.820;23.374;2023-04-24T06:42:18;14.97;56.66
77247;SHT35;66279;42.820;23.374;2023-04-24T06:44:46;15.10;55.02
77247;SHT35;66279;42.820;23.374;2023-04-24T06:47:11;15.24;53.30
77247;SHT35;66279;42.820;23.374;2023-04-24T06:49:39;15.27;54.26
77247;SHT35;66279;42.820;23.374;2023-04-24T06:52:05;15.23;53.72
77247;SHT35;66279;42.820;23.374;2023-04-24T06:54:31;15.16;52.99
77247;SHT35;66279;42.820;23.374;2023-04-24T06:56:58;15.21;54.64
77247;SHT35;66279;42.820;23.374;2023-04-24T06:59:24;15.14;55.33
77247;SHT35;66279;42.820;23.374;2023-04-24T07:01:50;15.18;53.20
77247;SHT35;66279;42.820;23.374;2023-04-24T07:04:18;15.21;55.46
77247;SHT35;66279;42.820;23.374;2023-04-24T07:06:48;15.17;53.57
77247;SHT35;66279;42.820;23.374;2023-04-24T07:09:14;15.12;53.62
77247;SHT35;66279;42.820;23.374;2023-04-24T07:11:41;14.79;52.32
77247;SHT35;66279;42.820;23.374;2023-04-24T07:14:07;15.03;53.93
77247;SHT35;66279;42.820;23.374;2023-04-24T07:16:34;15.44;53.79
77247;SHT35;66279;42.820;23.374;2023-04-24T07:18:59;15.42;51.98
77247;SHT35;66279;42.820;23.374;2023-04-24T07:21:25;15.38;52.55
77247;SHT35;66279;42.820;23.374;2023-04-24T07:23:51;15.79;54.27
77247;SHT35;66279;42.820;23.374;2023-04-24T07:26:16;15.86;54.25
77247;SHT35;66279;42.820;23.374;2023-04-24T07:28:42;16.43;52.85
77247;SHT35;66279;42.820;23.374;2023-04-24T07:31:08;16.82;49.92
77247;SHT35;66279;42.820;23.374;2023-04-24T07:33:33;17.15;49.47
77247;SHT35;66279;42.820;23.374;2023-04-24T07:35:59;17.37;48.20
77247;SHT35;66279;42.820;23.374;2023-04-24T07:38:25;17.60;48.39
77247;SHT35;66279;42.820;23.374;2023-04-24T07:40:51;17.84;49.37
77247;SHT35;66279;42.820;23.374;2023-04-24T07:43:17;18.18;47.93
77247;SHT35;66279;42.820;23.374;2023-04-24T07:45:43;18.53;47.77
77247;SHT35;66279;42.820;23.374;2023-04-24T07:48:09;19.12;46.86
77247;SHT35;66279;42.820;23.374;2023-04-24T07:50:34;19.15;43.59
77247;SHT35;66279;42.820;23.374;2023-04-24T07:53:01;19.51;43.38
77247;SHT35;66279;42.820;23.374;2023-04-24T07:55:27;19.86;46.21
77247;SHT35;66279;42.820;23.374;2023-04-24T07:57:52;20.14;42.47
77247;SHT35;66279;42.820;23.374;2023-04-24T08:00:18;20.47;42.49
77247;SHT35;66279;42.820;23.374;2023-04-24T08:02:44;20.30;42.80
77247;SHT35;66279;42.820;23.374;2023-04-24T08:05:09;20.64;42.79
77247;SHT35;66279;42.820;23.374;2023-04-24T08:07:35;20.79;41.52
77247;SHT35;66279;42.820;23.374;2023-04-24T08:10:01;20.84;41.24
77247;SHT35;66279;42.820;23.374;2023-04-24T08:12:28;21.06;43.75
77247;SHT35;66279;42.820;23.374;2023-04-24T08:14:54;21.27;41.01
77247;SHT35;66279;42.820;23.374;2023-04-24T08:17:20;21.71;39.98
77247;SHT35;66279;42.820;23.374;2023-04-24T08:19:45;22.15;40.71
77247;SHT35;66279;42.820;23.374;2023-04-24T08:22:17;22.21;38.84
77247;SHT35;66279;42.820;23.374;2023-04-24T08:24:42;22.29;38.02
77247;SHT35;66279;42.820;23.374;2023-04-24T08:27:09;22.26;39.12
77247;SHT35;66279;42.820;23.374;2023-04-24T08:29:36;22.09;38.84
77247;SHT35;66279;42.820;23.374;2023-04-24T08:32:01;22.62;37.77
77247;SHT35;66279;42.820;23.374;2023-04-24T08:34:27;22.66;40.59
77247;SHT35;66279;42.820;23.374;2023-04-24T08:36:52;23.11;37.13
77247;SHT35;66279;42.820;23.374;2023-04-24T08:39:18;23.10;36.64
77247;SHT35;66279;42.820;23.374;2023-04-24T08:41:44;23.47;38.46
77247;SHT35;66279;42.820;23.374;2023-04-24T08:44:11;23.89;35.99
77247;SHT35;66279;42.820;23.374;2023-04-24T08:46:37;24.17;36.36
77247;SHT35;66279;42.820;23.374;2023-04-24T08:49:03;23.83;40.68
77247;SHT35;66279;42.820;23.374;2023-04-24T08:51:29;24.05;36.57
77247;SHT35;66279;42.820;23.374;2023-04-24T08:53:56;24.20;37.05
77247;SHT35;66279;42.820;23.374;2023-04-24T08:56:22;24.34;35.92
77247;SHT35;66279;42.820;23.374;2023-04-24T08:58:51;24.72;35.65
77247;SHT35;66279;42.820;23.374;2023-04-24T09:01:18;24.17;36.54
77247;SHT35;66279;42.820;23.374;2023-04-24T09:03:47;24.37;38.31
77247;SHT35;66279;42.820;23.374;2023-04-24T09:06:14;24.59;34.90
77247;SHT35;66279;42.820;23.374;2023-04-24T09:08:41;24.82;35.15
77247;SHT35;66279;42.820;23.374;2023-04-24T09:26:09;24.87;36.02
77247;SHT35;66279;42.820;23.374;2023-04-24T09:28:37;24.70;34.40
77247;SHT35;66279;42.820;23.374;2023-04-24T09:33:29;24.65;36.76
77247;SHT35;66279;42.820;23.374;2023-04-24T09:35:54;25.16;35.58
77247;SHT35;66279;42.820;23.374;2023-04-24T09:38:31;25.69;35.08
77247;SHT35;66279;42.820;23.374;2023-04-24T09:40:59;25.63;34.16
77247;SHT35;66279;42.820;23.374;2023-04-24T09:43:26;25.26;33.32
77247;SHT35;66279;42.820;23.374;2023-04-24T09:45:56;25.43;32.43
77247;SHT35;66279;42.820;23.374;2023-04-24T09:48:37;25.69;32.73
77247;SHT35;66279;42.820;23.374;2023-04-24T09:51:04;25.32;32.67
77247;SHT35;66279;42.820;23.374;2023-04-24T09:53:32;26.11;34.11
77247;SHT35;66279;42.820;23.374;2023-04-24T09:56:08;26.34;32.72
77247;SHT35;66279;42.820;23.374;2023-04-24T09:58:35;26.58;32.88
77247;SHT35;66279;42.820;23.374;2023-04-24T10:01:01;26.65;35.15
77247;SHT35;66279;42.820;23.374;2023-04-24T10:03:29;25.96;33.16
77247;SHT35;66279;42.820;23.374;2023-04-24T10:06:01;26.37;36.24
77247;SHT35;66279;42.820;23.374;2023-04-24T10:08:33;26.92;34.31
77247;SHT35;66279;42.820;23.374;2023-04-24T10:10:59;27.37;34.51
77247;SHT35;66279;42.820;23.374;2023-04-24T10:13:25;27.36;30.31
77247;SHT35;66279;42.820;23.374;2023-04-24T10:15:51;27.53;33.88
77247;SHT35;66279;42.820;23.374;2023-04-24T10:18:17;27.62;30.45
77247;SHT35;66279;42.820;23.374;2023-04-24T10:20:44;27.74;31.00
77247;SHT35;66279;42.820;23.374;2023-04-24T10:23:10;28.15;30.78
77247;SHT35;66279;42.820;23.374;2023-04-24T10:25:36;27.77;30.05
77247;SHT35;66279;42.820;23.374;2023-04-24T10:28:03;27.91;31.77
77247;SHT35;66279;42.820;23.374;2023-04-24T10:30:34;27.65;28.42
77247;SHT35;66279;42.820;23.374;2023-04-24T10:33:07;27.00;31.36
77247;SHT35;66279;42.820;23.374;2023-04-24T10:35:39;26.72;34.75
77247;SHT35;66279;42.820;23.374;2023-04-24T10:38:11;25.86;32.39
77247;SHT35;66279;42.820;23.374;2023-04-24T10:40:37;26.31;33.82
77247;SHT35;66279;42.820;23.374;2023-04-24T10:43:04;26.14;31.15
77247;SHT35;66279;42.820;23.374;2023-04-24T10:45:37;26.29;31.18
77247;SHT35;66279;42.820;23.374;2023-04-24T10:48:09;25.86;35.41
77247;SHT35;66279;42.820;23.374;2023-04-24T10:50:51;26.28;32.06
77247;SHT35;66279;42.820;23.374;2023-04-24T10:53:27;26.60;34.36
77247;SHT35;66279;42.820;23.374;2023-04-24T10:58:35;26.44;30.30
77247;SHT35;66279;42.820;23.374;2023-04-24T11:01:01;26.52;31.64
77247;SHT35;66279;42.820;23.374;2023-04-24T11:03:28;26.18;30.14
77247;SHT35;66279;42.820;23.374;2023-04-24T11:05:57;25.77;32.95
77247;SHT35;66279;42.820;23.374;2023-04-24T11:08:30;26.58;32.15
77247;SHT35;66279;42.820;23.374;2023-04-24T11:11:08;26.56;31.45
77247;SHT35;66279;42.820;23.374;2023-04-24T11:19:08;27.50;29.93
77247;SHT35;66279;42.820;23.374;2023-04-24T11:21:59;27.51;31.29
77247;SHT35;66279;42.820;23.374;2023-04-24T11:27:14;28.15;30.52
77247;SHT35;66279;42.820;23.374;2023-04-24T11:30:07;27.64;29.32
77247;SHT35;66279;42.820;23.374;2023-04-24T11:37:36;27.36;31.27
77247;SHT35;66279;42.820;23.374;2023-04-24T11:40:03;27.03;30.59
77247;SHT35;66279;42.820;23.374;2023-04-24T11:44:53;25.88;32.67
77247;SHT35;66279;42.820;23.374;2023-04-24T11:47:27;24.71;34.48
77247;SHT35;66279;42.820;23.374;2023-04-24T11:49:53;24.59;35.49
77247;SHT35;66279;42.820;23.374;2023-04-24T11:52:19;24.70;36.51
77247;SHT35;66279;42.820;23.374;2023-04-24T11:54:49;24.82;35.07
77247;SHT35;66279;42.820;23.374;2023-04-24T11:57:16;24.37;35.84
77247;SHT35;66279;42.820;23.374;2023-04-24T11:59:41;24.68;34.67
77247;SHT35;66279;42.820;23.374;2023-04-24T12:02:22;24.65;34.43
77247;SHT35;66279;42.820;23.374;2023-04-24T12:04:48;24.59;35.89
77247;SHT35;66279;42.820;23.374;2023-04-24T12:07:14;24.96;33.37
77247;SHT35;66279;42.820;23.374;2023-04-24T12:09:59;24.84;32.91
77247;SHT35;66279;42.820;23.374;2023-04-24T12:12:28;24.94;34.62
77247;SHT35;66279;42.820;23.374;2023-04-24T14:40:16;19.96;41.89
77247;SHT35;66279;42.820;23.374;2023-04-24T14:42:42;19.97;41.40
77247;SHT35;66279;42.820;23.374;2023-04-24T14:45:08;20.14;40.90
77247;SHT35;66279;42.820;23.374;2023-04-24T14:47:33;20.09;41.47
77247;SHT35;66279;42.820;23.374;2023-04-24T14:49:59;20.21;41.47
77247;SHT35;66279;42.820;23.374;2023-04-24T14:52:25;20.23;41.52
77247;SHT35;66279;42.820;23.374;2023-04-24T14:59:53;19.21;46.37
77247;SHT35;66279;42.820;23.374;2023-04-24T15:09:49;17.98;51.72
